Time;durP1;ratioP1;P1;durP2;ratioP2;P2;SDS_P1;SDS_P2;PMS_P1;PMS_P2;Temp;Humidity;BMP_temperature;BMP_pressure;BME280_temperature;BME280_humidity;BME280_pressure;Samples;Min_cycle;Max_cycle;Signal;HPM_P1;HPM_P2
2022/09/30 00:01:24;;;;;;;;;30.50;26.50;;;;;11.80;64.75;100582.16;5039602;28;45518;-81
2022/09/30 00:03:56;;;;;;;;;30.50;27.50;;;;;11.72;65.05;100573.44;5058578;28;45452;-81
2022/09/30 00:06:34;;;;;;;;;29.75;27.75;;;;;11.65;64.81;100557.69;5048161;28;47032;-81
2022/09/30 00:09:34;;;;;;;;;;;;;;;;;;;;;
2022/09/30 00:12:26;;;;;;;;;23.00;21.25;;;;;11.68;64.77;100573.50;5034848;28;45626;-80
2022/09/30 00:15:01;;;;;;;;;25.50;22.75;;;;;11.63;65.12;100567.38;5053428;28;45535;-80
2022/09/30 00:17:33;;;;;;;;;24.50;23.50;;;;;11.68;64.99;100572.59;5050120;28;45810;-79
2022/09/30 00:20:16;;;;;;;;;23.25;21.00;;;;;11.61;65.13;100568.28;5042208;28;45496;-82
2022/09/30 00:23:00;;;;;;;;;26.75;25.00;;;;;11.68;65.22;100585.78;5042674;28;45402;-81
2022/09/30 00:25:31;;;;;;;;;25.50;24.00;;;;;11.66;65.33;100587.56;5053438;28;45239;-80
2022/09/30 00:27:59;;;;;;;;;24.25;24.00;;;;;11.66;65.34;100585.81;5044136;28;48016;-80
2022/09/30 00:30:28;;;;;;;;;25.00;21.00;;;;;11.59;65.21;100567.44;5050208;28;45247;-81
2022/09/30 00:32:54;;;;;;;;;21.25;21.00;;;;;11.64;65.59;100573.53;5041027;28;45385;-80
2022/09/30 00:35:26;;;;;;;;;26.00;23.00;;;;;11.62;65.48;100576.16;5041065;28;45472;-80
2022/09/30 00:38:01;;;;;;;;;24.75;22.50;;;;;11.52;65.50;100557.81;5042279;28;47991;-80
2022/09/30 00:40:50;;;;;;;;;23.75;21.75;;;;;11.62;65.60;100581.44;5042045;28;45361;-81
2022/09/30 00:43:42;;;;;;;;;24.00;21.25;;;;;11.59;65.42;100593.78;5040778;28;45394;-80
2022/09/30 00:57:43;;;;;;;;;;;;;;;;;;;;;
2022/09/30 01:00:21;;;;;;;;;;;;;;;;;;;;;
2022/09/30 01:02:58;;;;;;;;;22.00;19.50;;;;;11.27;65.99;100577.41;4988482;28;73626;-80
2022/09/30 01:05:39;;;;;;;;;;;;;;;;;;;;;
2022/09/30 01:08:45;;;;;;;;;;;;;;;;;;;;;
2022/09/30 01:11:11;;;;;;;;;22.50;21.00;;;;;11.27;65.89;100581.81;5042516;28;72836;-80
2022/09/30 01:13:40;;;;;;;;;16.25;16.25;;;;;11.35;66.08;100593.13;5043598;28;46376;-80
2022/09/30 01:16:11;;;;;;;;;24.00;21.00;;;;;11.35;66.29;100594.91;5055458;28;44900;-80
2022/09/30 01:19:01;;;;;;;;;15.50;15.50;;;;;11.32;66.08;100595.81;5036408;28;44683;-80
2022/09/30 01:21:59;;;;;;;;;22.25;20.75;;;;;11.33;66.06;100591.41;5044848;28;46292;-80
2022/09/30 01:25:03;;;;;;;;;17.25;16.00;;;;;11.31;66.18;100595.84;5005705;28;47080;-81
2022/09/30 01:27:49;;;;;;;;;20.00;20.00;;;;;11.25;66.11;100584.47;5053669;28;45375;-80
2022/09/30 01:30:37;;;;;;;;;17.25;17.25;;;;;11.24;66.08;100585.34;5030459;28;45425;-81
2022/09/30 01:33:08;;;;;;;;;19.00;17.50;;;;;11.27;66.18;100587.94;5046721;28;45309;-80
2022/09/30 01:36:14;;;;;;;;;20.75;16.50;;;;;11.29;66.22;100594.97;5059196;28;47802;-80
2022/09/30 01:39:08;;;;;;;;;20.00;19.25;;;;;11.31;66.33;100593.22;5040143;28;45469;-81
2022/09/30 01:41:57;;;;;;;;;21.00;21.00;;;;;11.30;66.14;100594.06;5040195;28;45510;-80
2022/09/30 01:44:46;;;;;;;;;18.50;15.50;;;;;11.31;66.33;100604.63;5056391;28;45297;-81
2022/09/30 01:47:24;;;;;;;;;23.50;20.00;;;;;11.31;66.17;100601.97;5044982;28;47094;-79
2022/09/30 01:50:02;;;;;;;;;13.75;13.00;;;;;11.30;66.00;100609.88;5049959;28;45478;-79
2022/09/30 01:52:47;;;;;;;;;17.25;17.00;;;;;11.30;66.25;100607.25;5042754;28;45247;-81
2022/09/30 01:55:14;;;;;;;;;19.75;17.00;;;;;11.27;66.19;100608.16;5056275;28;45173;-80
2022/09/30 01:57:54;;;;;;;;;21.50;20.75;;;;;11.29;66.49;100609.03;5044234;28;46544;-80
2022/09/30 02:00:20;;;;;;;;;16.75;16.25;;;;;11.27;66.39;100602.88;5041842;28;45400;-80
2022/09/30 02:02:58;;;;;;;;;21.75;20.75;;;;;11.29;66.65;100603.75;5049741;28;45445;-80
2022/09/30 02:05:29;;;;;;;;;18.00;17.50;;;;;11.27;66.79;100597.59;5043523;28;45368;-80
2022/09/30 02:08:05;;;;;;;;;20.25;16.25;;;;;11.20;66.81;100583.63;5038886;28;46755;-80
2022/09/30 02:10:43;;;;;;;;;21.00;18.50;;;;;11.20;66.60;100588.91;5041088;28;45352;-79
2022/09/30 02:13:17;;;;;;;;;20.75;20.25;;;;;11.17;66.88;100583.66;5042025;28;45287;-80
2022/09/30 02:15:51;;;;;;;;;21.00;19.25;;;;;11.21;67.02;100582.72;5050250;28;45965;-80
2022/09/30 02:18:23;;;;;;;;;21.00;19.00;;;;;11.25;67.16;100595.00;5041837;28;47170;-80
2022/09/30 02:20:56;;;;;;;;;21.75;20.25;;;;;11.19;66.92;100581.00;5058907;28;45390;-80
2022/09/30 02:23:28;;;;;;;;;18.00;15.00;;;;;11.22;67.03;100588.88;5042922;28;45358;-80
2022/09/30 02:26:23;;;;;;;;;17.25;16.75;;;;;11.24;66.91;100592.38;5040610;28;45280;-80
2022/09/30 02:29:02;;;;;;;;;21.25;20.75;;;;;11.19;67.08;100589.78;5029465;28;47448;-80
2022/09/30 02:31:33;;;;;;;;;18.75;18.00;;;;;11.18;66.88;100588.03;5052351;28;45394;-81
2022/09/30 02:34:04;;;;;;;;;14.25;14.25;;;;;11.22;66.79;100596.78;5039775;28;45298;-79
2022/09/30 02:36:38;;;;;;;;;16.75;15.00;;;;;11.17;67.35;100595.94;5027568;28;45439;-80
2022/09/30 02:39:29;;;;;;;;;13.25;12.25;;;;;11.21;67.00;100593.28;5053543;28;45484;-81
2022/09/30 02:42:06;;;;;;;;;18.25;17.75;;;;;11.17;66.95;100588.94;5040237;28;45311;-82
2022/09/30 02:44:32;;;;;;;;;20.75;17.00;;;;;11.18;66.91;100598.56;5028112;28;45340;-80
2022/09/30 02:47:04;;;;;;;;;20.50;20.00;;;;;11.19;66.86;100604.72;5040687;28;45640;-79
2022/09/30 02:49:46;;;;;;;;;16.00;14.75;;;;;11.10;66.60;100587.22;5040006;28;45951;-80
2022/09/30 02:52:35;;;;;;;;;17.25;16.00;;;;;11.16;66.53;100607.38;5043957;28;45241;-80
2022/09/30 02:55:15;;;;;;;;;19.75;19.75;;;;;11.10;66.52;100603.03;5030595;28;45391;-80
2022/09/30 02:58:31;;;;;;;;;;;;;;;;;;;;;
2022/09/30 03:04:34;;;;;;;;;15.75;15.00;;;;;11.05;67.16;100628.53;5014559;28;45444;-82
2022/09/30 03:07:32;;;;;;;;;20.25;18.75;;;;;11.02;67.40;100626.81;5026537;28;45320;-82
2022/09/30 03:17:32;;;;;;;;;;;;;;;;;;;;;
2022/09/30 03:24:12;;;;;;;;;;;;;;;;;;;;;
2022/09/30 03:27:01;;;;;;;;;19.50;19.25;;;;;10.86;68.00;100653.25;4920442;28;74176;-81
2022/09/30 03:30:06;;;;;;;;;17.25;16.50;;;;;10.74;68.05;100652.44;5001426;28;45321;-82
2022/09/30 03:33:25;;;;;;;;;;;;;;;;;;;;;
2022/09/30 03:36:00;;;;;;;;;11.75;11.25;;;;;10.79;67.94;100670.84;5044283;28;72837;-81
2022/09/30 03:38:34;;;;;;;;;23.00;21.00;;;;;10.78;67.93;100688.41;5064373;28;45457;-82
2022/09/30 03:41:39;;;;;;;;;20.25;16.25;;;;;10.73;67.75;100689.31;5045526;28;46001;-81
2022/09/30 03:45:08;;;;;;;;;;;;;;;;;;;;;
2022/09/30 03:48:19;;;;;;;;;;;;;;;;;;;;;
2022/09/30 03:58:04;;;;;;;;;;;;;;;;;;;;;
2022/09/30 04:05:04;;;;;;;;;;;;;;;;;;;;;
2022/09/30 04:08:05;;;;;;;;;;;;;;;;;;;;;
2022/09/30 04:11:17;;;;;;;;;;;;;;;;;;;;;
2022/09/30 04:14:47;;;;;;;;;;;;;;;;;;;;;
2022/09/30 04:21:33;;;;;;;;;;;;;;;;;;;;;
2022/09/30 04:24:11;;;;;;;;;20.75;20.50;;;;;10.15;67.52;100770.19;5000247;28;67795;-82
2022/09/30 04:27:05;;;;;;;;;17.50;16.50;;;;;10.01;67.73;100757.94;4981964;28;45590;-80
2022/09/30 04:29:55;;;;;;;;;;;;;;;;;;;;;
2022/09/30 04:32:51;;;;;;;;;21.00;21.00;;;;;9.87;67.71;100761.47;5028882;28;71694;-82
2022/09/30 04:35:28;;;;;;;;;20.50;19.50;;;;;9.88;68.03;100778.97;5052707;28;45413;-81
2022/09/30 04:38:07;;;;;;;;;;;;;;;;;;;;;
2022/09/30 04:40:48;;;;;;;;;19.75;18.75;;;;;9.72;67.88;100762.31;5040222;28;73811;-80
2022/09/30 04:43:27;;;;;;;;;16.00;14.75;;;;;9.66;68.19;100767.59;5050686;28;45421;-81
2022/09/30 04:46:03;;;;;;;;;;;;;;;;;;;;;
2022/09/30 04:48:30;;;;;;;;;19.75;19.25;;;;;9.63;68.14;100782.50;5040603;28;72641;-81
2022/09/30 04:50:57;;;;;;;;;20.50;20.50;;;;;9.53;68.66;100770.22;5040486;28;47876;-81
2022/09/30 04:53:40;;;;;;;;;18.25;16.75;;;;;9.61;68.75;100789.50;5052033;28;45248;-81
2022/09/30 04:56:08;;;;;;;;;21.25;18.00;;;;;9.56;69.04;100792.09;5040334;28;45401;-81
2022/09/30 04:58:53;;;;;;;;;;;;;;;;;;;;;
2022/09/30 05:04:12;;;;;;;;;23.50;20.00;;;;;9.43;69.55;100788.59;5024425;28;45376;-82
2022/09/30 05:06:41;;;;;;;;;19.50;19.00;;;;;9.33;69.56;100773.69;5041433;28;45252;-82
2022/09/30 05:09:06;;;;;;;;;19.00;18.25;;;;;9.46;69.52;100791.25;5049282;28;45198;-82
2022/09/30 05:11:32;;;;;;;;;21.00;18.00;;;;;9.36;69.76;100781.59;5046360;28;46849;-81
2022/09/30 05:13:57;;;;;;;;;20.75;20.25;;;;;9.47;69.69;100792.97;5052555;28;45338;-81
2022/09/30 05:16:41;;;;;;;;;20.25;19.25;;;;;9.45;70.06;100793.84;5041244;28;45780;-83
2022/09/30 05:19:06;;;;;;;;;22.00;22.00;;;;;9.44;69.82;100794.75;5041221;28;45177;-82
2022/09/30 05:21:31;;;;;;;;;26.75;24.25;;;;;9.38;69.82;100785.09;5039614;28;46175;-82
2022/09/30 05:23:57;;;;;;;;;23.50;22.25;;;;;9.37;69.81;100787.72;5039465;28;45600;-81
2022/09/30 05:26:22;;;;;;;;;21.00;20.50;;;;;9.42;70.15;100794.72;5041116;28;45241;-82
2022/09/30 05:28:48;;;;;;;;;27.00;24.25;;;;;9.44;70.25;100797.38;5050765;28;45437;-82
2022/09/30 05:31:13;;;;;;;;;24.50;23.25;;;;;9.38;70.30;100787.72;5041520;28;47645;-81
2022/09/30 05:33:40;;;;;;;;;25.50;24.50;;;;;9.55;70.20;100813.16;5039692;28;45360;-82
2022/09/30 05:36:07;;;;;;;;;24.75;20.25;;;;;9.55;70.31;100808.75;5036420;28;45432;-82
2022/09/30 05:38:35;;;;;;;;;21.25;19.00;;;;;9.50;70.20;100803.50;5030971;28;45486;-82
2022/09/30 05:41:10;;;;;;;;;23.25;21.75;;;;;9.46;70.08;100785.97;5040539;28;46140;-81
2022/09/30 05:43:37;;;;;;;;;18.00;18.00;;;;;9.54;70.04;100804.38;5040448;28;45266;-81
2022/09/30 05:46:05;;;;;;;;;23.00;22.00;;;;;9.46;70.46;100783.34;5026447;28;45368;-82
2022/09/30 05:48:31;;;;;;;;;22.00;18.50;;;;;9.62;70.28;100812.25;5039103;28;45535;-80
2022/09/30 05:51:00;;;;;;;;;21.75;19.25;;;;;9.57;69.95;100791.25;5043118;28;46469;-81
2022/09/30 05:53:26;;;;;;;;;23.50;20.50;;;;;9.57;69.86;100798.25;5038233;28;45261;-81
2022/09/30 05:55:52;;;;;;;;;24.00;20.00;;;;;9.62;70.06;100797.41;5056183;28;45583;-81
2022/09/30 05:58:26;;;;;;;;;21.50;19.50;;;;;9.67;69.93;100810.53;5040120;28;45471;-83
2022/09/30 06:00:51;;;;;;;;;24.50;21.25;;;;;9.69;69.95;100808.78;5033083;28;46520;-83
2022/09/30 06:03:47;;;;;;;;;;;;;;;;;;;;;
2022/09/30 06:10:20;;;;;;;;;21.25;20.25;;;;;9.83;69.98;100843.81;4993380;28;45505;-84
2022/09/30 06:17:30;;;;;;;;;23.75;21.25;;;;;9.87;69.87;100850.00;4937324;28;45737;-84
2022/09/30 06:30:08;;;;;;;;;24.50;23.00;;;;;9.95;69.92;100866.66;4867776;29;45516;-81
2022/09/30 06:32:33;;;;;;;;;21.25;19.50;;;;;10.03;69.67;100877.19;4894456;28;45503;-82
2022/09/30 06:35:02;;;;;;;;;24.50;23.25;;;;;10.01;69.61;100863.16;5020248;28;45395;-83
2022/09/30 06:38:24;;;;;;;;;;;;;;;;;;;;;
2022/09/30 06:41:42;;;;;;;;;18.50;17.50;;;;;10.10;69.56;100858.78;5036937;28;71403;-83
2022/09/30 06:45:22;;;;;;;;;;;;;;;;;;;;;
2022/09/30 06:51:46;;;;;;;;;24.00;22.75;;;;;10.23;69.51;100885.94;5041014;28;45465;-81
2022/09/30 06:58:23;;;;;;;;;;;;;;;;;;;;;
2022/09/30 07:05:25;;;;;;;;;;;;;;;;;;;;;
2022/09/30 07:28:39;;;;;;;;;23.75;21.25;;;;;10.73;69.07;100889.44;4906467;29;45520;-82
2022/09/30 07:31:48;;;;;;;;;28.00;24.25;;;;;10.75;69.04;100888.56;4906486;29;46318;-82
2022/09/30 07:37:15;;;;;;;;;25.00;22.75;;;;;10.84;68.90;100892.06;5038325;28;45350;-83
2022/09/30 07:39:43;;;;;;;;;27.50;26.50;;;;;10.84;68.91;100882.38;5000519;28;45487;-83
2022/09/30 07:42:09;;;;;;;;;26.00;23.50;;;;;10.92;68.73;100893.78;5046125;28;47237;-84
2022/09/30 07:44:37;;;;;;;;;30.25;29.00;;;;;10.99;68.72;100892.00;5054824;28;45493;-82
2022/09/30 07:47:02;;;;;;;;;32.00;27.50;;;;;11.01;68.63;100890.22;5049909;28;45468;-84
2022/09/30 07:49:28;;;;;;;;;30.50;26.00;;;;;11.07;68.52;100899.91;5052420;28;45255;-83
2022/09/30 07:51:58;;;;;;;;;29.75;27.75;;;;;11.05;68.40;100889.34;5049366;28;46600;-82
2022/09/30 07:54:27;;;;;;;;;32.00;29.25;;;;;11.18;68.48;100903.38;5049860;28;45385;-83
2022/09/30 07:56:53;;;;;;;;;28.75;28.75;;;;;11.18;68.25;100898.97;5063818;28;45449;-83
2022/09/30 07:59:19;;;;;;;;;22.00;22.00;;;;;11.22;68.00;100910.34;5039864;28;45631;-82
2022/09/30 08:02:12;;;;;;;;;25.50;24.50;;;;;11.29;68.20;100901.56;5042896;28;47957;-82
2022/09/30 08:04:49;;;;;;;;;27.25;25.00;;;;;11.29;68.22;100887.50;5042879;28;45697;-82
2022/09/30 08:07:16;;;;;;;;;28.00;27.25;;;;;11.41;68.31;100896.25;5049668;28;45421;-83
2022/09/30 08:09:42;;;;;;;;;32.50;28.25;;;;;11.50;68.15;100902.34;5052308;28;45372;-82
2022/09/30 08:12:07;;;;;;;;;34.00;31.25;;;;;11.51;68.00;100896.19;5044708;28;45235;-83
2022/09/30 08:14:33;;;;;;;;;31.25;28.25;;;;;11.63;67.85;100909.31;5043677;28;46019;-83
2022/09/30 08:16:59;;;;;;;;;35.00;33.00;;;;;11.67;67.64;100906.63;5040201;28;45249;-83
2022/09/30 08:19:37;;;;;;;;;33.75;31.00;;;;;11.69;67.39;100899.59;5039932;28;45517;-84
2022/09/30 08:22:02;;;;;;;;;36.25;31.00;;;;;11.85;67.59;100907.41;5027643;28;47083;-81
2022/09/30 08:24:36;;;;;;;;;31.50;28.75;;;;;11.92;67.22;100903.88;5039396;28;45453;-81
2022/09/30 08:27:12;;;;;;;;;;;;;;;;;;;;;
2022/09/30 08:33:19;;;;;;;;;32.75;30.75;;;;;12.23;67.09;100904.53;5023592;28;45364;-82
2022/09/30 08:35:44;;;;;;;;;33.25;29.25;;;;;12.32;66.70;100899.19;5045630;28;45262;-81
2022/09/30 08:38:12;;;;;;;;;31.25;27.25;;;;;12.37;66.59;100896.50;5041293;28;45264;-82
2022/09/30 08:41:07;;;;;;;;;37.00;34.75;;;;;12.53;66.39;100910.44;5041441;28;45608;-81
2022/09/30 08:44:16;;;;;;;;;36.00;31.00;;;;;12.62;66.28;100902.44;5039639;28;45846;-81
2022/09/30 08:47:06;;;;;;;;;;;;;;;;;;;;;
2022/09/30 08:50:00;;;;;;;;;;;;;;;;;;;;;
2022/09/30 08:52:37;;;;;;;;;31.25;30.00;;;;;12.85;65.35;100896.91;5035832;28;72710;-83
2022/09/30 08:55:25;;;;;;;;;;;;;;;;;;;;;
2022/09/30 08:58:05;;;;;;;;;28.00;28.00;;;;;13.06;65.12;100901.09;5028269;28;71386;-81
2022/09/30 09:00:42;;;;;;;;;;;;;;;;;;;;;
2022/09/30 09:03:19;;;;;;;;;27.00;26.50;;;;;13.24;64.63;100900.00;5039834;28;72650;-82
2022/09/30 09:05:59;;;;;;;;;32.75;29.00;;;;;13.38;64.20;100911.31;5026348;28;47407;-82
2022/09/30 09:09:01;;;;;;;;;30.50;26.50;;;;;13.48;63.98;100917.38;5026115;28;45274;-82
2022/09/30 09:12:13;;;;;;;;;32.25;31.25;;;;;13.62;63.89;100909.25;5039301;28;45350;-82
2022/09/30 09:15:14;;;;;;;;;39.00;33.00;;;;;13.73;63.88;100912.59;5029080;28;45501;-82
2022/09/30 09:17:46;;;;;;;;;37.50;31.00;;;;;13.86;63.66;100918.59;5038914;28;47713;-82
2022/09/30 09:20:13;;;;;;;;;39.75;35.00;;;;;13.96;63.59;100916.72;5025940;28;45589;-82
2022/09/30 09:22:52;;;;;;;;;31.50;28.00;;;;;13.98;63.29;100906.94;5039357;28;45277;-82
2022/09/30 09:25:25;;;;;;;;;29.75;26.25;;;;;14.04;62.97;100913.03;5039166;28;45592;-82
2022/09/30 09:28:35;;;;;;;;;39.50;33.00;;;;;14.18;62.83;100915.47;5037748;28;47107;-82
2022/09/30 09:31:09;;;;;;;;;28.50;26.50;;;;;14.26;62.17;100920.66;5003821;28;45372;-83
2022/09/30 09:33:41;;;;;;;;;27.00;25.00;;;;;14.33;61.66;100922.31;5051507;28;45492;-83
2022/09/30 09:36:26;;;;;;;;;26.25;25.25;;;;;14.40;61.74;100929.25;5040200;28;45504;-83
2022/09/30 09:39:21;;;;;;;;;22.00;22.00;;;;;14.45;61.11;100923.88;5038976;28;47276;-83
2022/09/30 09:42:02;;;;;;;;;29.75;25.25;;;;;14.58;61.36;100930.75;5055820;28;45307;-83
2022/09/30 09:44:54;;;;;;;;;29.50;29.25;;;;;14.67;61.13;100917.31;5026157;28;45504;-83
2022/09/30 09:47:22;;;;;;;;;25.00;22.75;;;;;14.74;60.41;100916.31;5040019;28;45421;-83
2022/09/30 09:50:14;;;;;;;;;21.00;20.25;;;;;14.85;60.24;100921.41;5051455;28;45558;-83
2022/09/30 09:53:06;;;;;;;;;28.25;25.25;;;;;14.94;59.87;100921.25;5037855;28;45453;-83
2022/09/30 09:55:54;;;;;;;;;25.25;23.00;;;;;15.06;59.58;100921.94;5039522;28;45459;-83
2022/09/30 09:58:20;;;;;;;;;24.50;22.50;;;;;15.16;58.93;100918.19;5038671;28;45664;-82
2022/09/30 10:03:28;;;;;;;;;18.00;17.00;;;;;15.40;58.69;100915.03;5046703;28;45212;-83
2022/09/30 10:06:14;;;;;;;;;17.00;15.75;;;;;15.49;57.90;100911.31;5039700;28;45426;-83
2022/09/30 10:08:53;;;;;;;;;16.25;15.25;;;;;15.64;57.49;100918.94;5039955;28;45394;-83
2022/09/30 10:46:13;;;;;;;;;8.75;8.75;;;;;17.49;52.39;100911.63;5075557;22;45732;-84
2022/09/30 10:51:39;;;;;;;;;8.33;7.33;;;;;17.71;51.07;100909.19;5039414;28;45511;-84
2022/09/30 10:54:05;;;;;;;;;8.00;8.00;;;;;17.82;50.32;100910.63;5051430;28;45306;-84
2022/09/30 10:56:48;;;;;;;;;8.00;7.00;;;;;17.92;50.09;100900.56;5056043;28;45315;-85
2022/09/30 10:59:24;;;;;;;;;6.00;6.00;;;;;18.07;50.08;100900.06;5053727;28;45571;-83
2022/09/30 11:02:15;;;;;;;;;8.67;7.67;;;;;18.25;49.88;100911.03;5061756;28;46235;-84
2022/09/30 11:05:21;;;;;;;;;6.67;6.67;;;;;18.38;49.04;100907.03;5053791;28;45439;-84
2022/09/30 11:08:14;;;;;;;;;8.33;8.00;;;;;18.48;48.27;100911.16;5038069;28;45402;-82
2022/09/30 11:10:52;;;;;;;;;7.00;7.00;;;;;18.65;48.29;100917.69;5041612;28;45488;-83
2022/09/30 11:13:36;;;;;;;;;7.00;7.00;;;;;18.82;48.16;100919.81;5046648;28;47246;-83
2022/09/30 11:16:09;;;;;;;;;7.67;6.67;;;;;18.95;47.03;100915.78;5058080;28;45429;-84
2022/09/30 11:18:46;;;;;;;;;6.33;6.33;;;;;19.06;46.93;100912.72;5059530;28;45476;-83
2022/09/30 11:21:25;;;;;;;;;6.33;5.00;;;;;19.21;46.27;100912.16;5056775;28;45745;-83
2022/09/30 11:24:35;;;;;;;;;5.00;5.00;;;;;19.42;45.75;100907.84;5057494;28;48262;-83
2022/09/30 11:27:13;;;;;;;;;5.33;5.33;;;;;19.63;45.28;100903.47;5038973;28;45490;-83
2022/09/30 11:30:09;;;;;;;;;7.00;7.00;;;;;19.81;44.89;100904.59;5049446;28;45360;-83
2022/09/30 11:32:57;;;;;;;;;4.67;4.67;;;;;19.98;44.10;100901.25;5059059;28;45248;-85
2022/09/30 11:35:45;;;;;;;;;5.33;4.67;;;;;20.15;43.78;100908.56;5057095;28;47707;-83
2022/09/30 11:38:35;;;;;;;;;6.67;5.67;;;;;20.36;42.96;100909.50;5037313;28;45806;-83
2022/09/30 11:41:29;;;;;;;;;6.00;4.67;;;;;20.56;43.06;100904.22;5056005;28;45349;-82
2022/09/30 11:44:18;;;;;;;;;6.00;6.00;;;;;20.79;42.86;100897.00;5051806;28;45293;-83
2022/09/30 11:53:54;;;;;;;;;5.00;4.00;;;;;22.28;41.29;100890.06;5053646;28;45437;-81
2022/09/30 11:56:58;;;;;;;;;6.00;6.00;;;;;23.52;39.46;100891.59;5049472;28;45504;-83
2022/09/30 11:59:50;;;;;;;;;3.00;3.00;;;;;24.37;37.94;100885.84;5057791;28;46487;-84
2022/09/30 12:03:04;;;;;;;;;4.33;4.33;;;;;26.65;37.61;100887.63;5042710;28;45879;-85
2022/09/30 12:09:32;;;;;;;;;;;;;;;;;;;;;
2022/09/30 12:19:13;;;;;;;;;3.00;3.00;;;;;34.54;24.67;100867.25;5046266;28;45391;-92
2022/09/30 12:21:48;;;;;;;;;2.00;2.00;;;;;33.71;25.32;100861.97;4980887;28;45543;-89
2022/09/30 12:25:19;;;;;;;;;5.00;4.00;;;;;33.98;25.06;100852.88;5046156;28;48076;-90
2022/09/30 12:30:15;;;;;;;;;3.00;3.00;;;;;34.36;24.15;100845.41;5013814;28;45631;-89
2022/09/30 12:30:59;;;;;;;;;2.00;2.00;;;;;33.80;23.94;100841.06;5044608;28;45502;-84
2022/09/30 12:34:21;;;;;;;;;2.00;2.00;;;;;33.62;24.51;100841.03;5046098;28;45369;-92
2022/09/30 12:37:26;;;;;;;;;3.00;1.00;;;;;34.42;24.45;100841.16;5025881;28;46412;-89
2022/09/30 12:40:24;;;;;;;;;1.00;1.00;;;;;35.57;22.60;100840.00;5029466;28;45367;-89
2022/09/30 12:43:15;;;;;;;;;2.00;2.00;;;;;36.57;21.73;100835.38;5050116;28;45464;-87
2022/09/30 12:45:53;;;;;;;;;1.00;1.00;;;;;37.22;20.33;100839.88;5061585;28;45424;-88
2022/09/30 12:48:52;;;;;;;;;1.00;1.00;;;;;37.97;20.09;100837.66;5068718;28;47286;-90
2022/09/30 12:51:28;;;;;;;;;2.00;2.00;;;;;38.73;18.82;100833.88;5060741;28;45232;-87
2022/09/30 12:54:17;;;;;;;;;2.00;2.00;;;;;39.12;18.51;100830.03;5081788;28;45488;-88
2022/09/30 12:56:46;;;;;;;;;1.00;1.00;;;;;38.43;17.65;100812.88;5049492;28;45322;-87
2022/09/30 12:59:33;;;;;;;;;1.00;1.00;;;;;38.12;18.53;100811.91;5058433;28;45249;-87
2022/09/30 13:02:02;;;;;;;;;1.33;1.33;;;;;38.63;17.61;100797.53;5052057;28;45749;-84
2022/09/30 13:05:13;;;;;;;;;1.00;1.00;;;;;38.95;17.43;100807.38;5080617;28;45491;-85
2022/09/30 13:08:11;;;;;;;;;1.00;1.00;;;;;39.17;17.08;100801.94;5052242;28;45475;-86
2022/09/30 13:10:36;;;;;;;;;2.00;2.00;;;;;39.45;16.95;100802.94;5053611;28;45506;-86
2022/09/30 13:13:24;;;;;;;;;2.00;2.00;;;;;39.55;16.71;100801.78;5058999;28;45405;-86
2022/09/30 13:16:02;;;;;;;;;2.00;2.00;;;;;38.90;16.59;100790.56;5066942;28;45223;-85
2022/09/30 13:18:28;;;;;;;;;1.00;1.00;;;;;38.13;17.44;100790.78;5047783;28;45302;-85
2022/09/30 13:21:07;;;;;;;;;2.00;2.00;;;;;37.51;17.55;100791.72;5064616;28;45414;-86
2022/09/30 13:23:38;;;;;;;;;1.00;1.00;;;;;36.66;17.93;100778.59;5050250;28;45335;-87
2022/09/30 13:26:41;;;;;;;;;2.00;2.00;;;;;35.85;17.66;100782.19;5059650;28;44941;-84
2022/09/30 13:29:13;;;;;;;;;2.00;2.00;;;;;35.56;18.06;100778.03;5058260;28;45264;-88
2022/09/30 13:31:57;;;;;;;;;;;;;;;;;;;;;
2022/09/30 13:34:49;;;;;;;;;2.00;1.00;;;;;34.82;17.75;100771.38;5066088;28;71485;-87
2022/09/30 13:37:36;;;;;;;;;1.00;1.00;;;;;34.83;17.89;100771.22;5060856;28;45424;-84
2022/09/30 13:40:06;;;;;;;;;1.67;1.67;;;;;34.29;18.41;100773.22;5061007;28;45419;-84
2022/09/30 13:42:43;;;;;;;;;1.67;1.67;;;;;33.15;18.30;100773.75;5058425;28;45307;-85
2022/09/30 13:45:25;;;;;;;;;2.33;2.33;;;;;32.25;19.72;100774.28;5060159;28;45461;-84
2022/09/30 13:48:26;;;;;;;;;3.00;2.00;;;;;31.54;19.75;100766.34;5030874;28;45462;-87
2022/09/30 13:50:58;;;;;;;;;4.00;3.00;;;;;29.91;20.70;100775.19;5036445;28;45592;-82
2022/09/30 13:54:03;;;;;;;;;3.00;3.00;;;;;29.68;22.20;100772.56;5035032;28;47118;-85
2022/09/30 13:56:38;;;;;;;;;1.67;1.33;;;;;30.14;21.62;100758.81;5029611;28;45608;-85
2022/09/30 13:59:23;;;;;;;;;3.00;2.00;;;;;30.43;21.77;100765.31;5031052;28;45449;-85
2022/09/30 14:02:13;;;;;;;;;2.00;2.00;;;;;29.63;21.72;100757.63;5036901;28;45379;-86
2022/09/30 14:05:03;;;;;;;;;3.67;3.67;;;;;29.85;21.95;100751.28;5018665;28;46768;-84
2022/09/30 14:07:43;;;;;;;;;3.00;3.00;;;;;30.78;22.61;100750.47;5019999;28;45343;-82
2022/09/30 14:10:36;;;;;;;;;2.00;2.00;;;;;32.04;21.63;100749.94;5031882;28;45426;-82
2022/09/30 14:13:23;;;;;;;;;2.33;1.00;;;;;32.69;20.37;100747.34;5025787;28;45447;-82
2022/09/30 14:16:12;;;;;;;;;1.33;1.33;;;;;33.01;19.73;100752.41;5037682;28;46974;-82
2022/09/30 14:19:07;;;;;;;;;1.67;1.33;;;;;33.38;20.24;100749.63;5025403;28;45254;-82
2022/09/30 14:21:49;;;;;;;;;1.00;1.00;;;;;33.59;18.64;100757.56;5039022;28;45679;-82
2022/09/30 14:24:24;;;;;;;;;1.00;1.00;;;;;33.36;19.38;100759.84;5037829;28;45964;-81
2022/09/30 14:27:11;;;;;;;;;2.00;2.00;;;;;33.31;18.60;100744.94;5038250;28;46104;-84
2022/09/30 14:29:55;;;;;;;;;1.00;1.00;;;;;33.65;19.51;100750.59;5031066;28;45317;-82
2022/09/30 14:32:56;;;;;;;;;2.00;1.00;;;;;33.63;19.01;100749.03;5038599;28;45431;-90
2022/09/30 14:35:54;;;;;;;;;1.00;1.00;;;;;32.98;19.49;100749.13;5037657;28;46099;-86
2022/09/30 14:38:37;;;;;;;;;2.00;2.00;;;;;31.76;19.79;100748.91;5029428;28;45379;-87
2022/09/30 14:41:13;;;;;;;;;1.67;1.33;;;;;31.64;19.83;100754.47;5036683;28;45347;-84
2022/09/30 14:43:46;;;;;;;;;2.00;2.00;;;;;32.05;19.96;100755.25;5038172;28;45340;-86
2022/09/30 14:46:22;;;;;;;;;3.00;2.00;;;;;32.61;20.03;100766.34;5025420;28;45832;-84
2022/09/30 14:48:51;;;;;;;;;0.00;0.00;;;;;31.35;19.99;100770.72;5037253;28;48191;-84
2022/09/30 14:51:23;;;;;;;;;1.00;1.00;;;;;31.26;20.74;100771.56;5028876;28;45624;-84
2022/09/30 14:53:51;;;;;;;;;1.67;1.00;;;;;31.89;20.90;100767.66;5035345;28;45537;-84
2022/09/30 14:56:35;;;;;;;;;2.00;2.00;;;;;32.63;20.02;100761.59;5033511;28;45450;-84
2022/09/30 14:59:23;;;;;;;;;1.67;1.67;;;;;32.93;19.99;100758.63;5020435;28;48370;-84
2022/09/30 15:01:54;;;;;;;;;2.00;1.00;;;;;33.05;18.90;100763.91;5032472;28;45434;-84
2022/09/30 15:04:25;;;;;;;;;1.00;1.00;;;;;32.66;19.73;100748.50;5031891;28;45387;-84
2022/09/30 15:06:52;;;;;;;;;0.00;0.00;;;;;32.20;19.42;100768.41;5032323;28;45461;-84
2022/09/30 15:09:39;;;;;;;;;0.00;0.00;;;;;30.86;20.32;100767.00;5038135;28;45581;-84
2022/09/30 15:12:13;;;;;;;;;3.67;1.67;;;;;29.63;20.96;100769.34;5026122;28;45352;-83
2022/09/30 15:15:40;;;;;;;;;0.00;0.00;;;;;29.45;21.93;100774.44;5017365;28;45301;-85
2022/09/30 15:18:30;;;;;;;;;1.00;1.00;;;;;28.67;21.89;100771.78;5017151;28;46090;-84
2022/09/30 15:21:15;;;;;;;;;2.00;2.00;;;;;27.21;22.71;100785.50;5030003;28;45630;-83
2022/09/30 15:23:46;;;;;;;;;1.00;1.00;;;;;26.06;24.02;100772.81;5027200;28;45442;-83
2022/09/30 15:26:26;;;;;;;;;1.00;1.00;;;;;25.08;24.96;100777.41;5036333;28;45465;-90
2022/09/30 15:28:54;;;;;;;;;2.00;2.00;;;;;24.29;25.99;100785.88;5044391;28;45623;-90
2022/09/30 15:31:43;;;;;;;;;1.67;1.67;;;;;23.57;27.04;100776.63;5027850;28;47156;-91
2022/09/30 15:34:27;;;;;;;;;0.00;0.00;;;;;22.86;27.81;100777.00;5026546;28;45495;-84
2022/09/30 15:37:16;;;;;;;;;1.00;1.00;;;;;22.39;28.61;100783.94;5031831;28;45533;-84
2022/09/30 15:42:58;;;;;;;;;3.00;2.00;;;;;21.50;30.03;100776.84;5032449;28;45314;-86
2022/09/30 15:45:34;;;;;;;;;1.33;1.00;;;;;21.12;30.36;100766.97;5020801;28;45651;-86
2022/09/30 15:48:26;;;;;;;;;2.00;2.00;;;;;20.83;31.51;100772.81;5028958;28;45483;-85
2022/09/30 15:50:57;;;;;;;;;3.00;2.67;;;;;20.56;31.96;100773.13;5036051;28;45553;-87
2022/09/30 15:53:37;;;;;;;;;1.00;1.00;;;;;20.40;32.62;100778.28;5022311;28;46946;-87